sensor_id;sensor_type;location;lat;lon;timestamp;P1;durP1;ratioP1;P2;durP2;ratioP2
9280;SDS011;4679;47.966;7.958;2024-02-28T06:48:07;38.43;;;22.70;;
9280;SDS011;4679;47.966;7.958;2024-02-28T06:50:09;39.97;;;23.50;;
9280;SDS011;4679;47.966;7.958;2024-02-28T06:52:11;45.83;;;24.73;;
9280;SDS011;4679;47.966;7.958;2024-02-28T06:54:13;38.20;;;23.37;;
9280;SDS011;4679;47.966;7.958;2024-02-28T06:56:14;38.93;;;23.23;;
9280;SDS011;4679;47.966;7.958;2024-02-28T06:58:16;37.93;;;24.20;;
9280;SDS011;4679;47.966;7.958;2024-02-28T07:00:17;42.63;;;25.43;;
9280;SDS011;4679;47.966;7.958;2024-02-28T07:02:19;41.30;;;24.83;;
9280;SDS011;4679;47.966;7.958;2024-02-28T07:04:21;41.70;;;23.40;;
9280;SDS011;4679;47.966;7.958;2024-02-28T07:06:23;38.57;;;24.20;;
9280;SDS011;4679;47.966;7.958;2024-02-28T07:08:24;40.77;;;23.77;;
9280;SDS011;4679;47.966;7.958;2024-02-28T07:10:25;42.53;;;23.50;;
9280;SDS011;4679;47.966;7.958;2024-02-28T07:12:27;38.93;;;23.30;;
9280;SDS011;4679;47.966;7.958;2024-02-28T07:14:28;38.37;;;23.33;;
9280;SDS011;4679;47.966;7.958;2024-02-28T07:16:30;39.33;;;23.17;;
9280;SDS011;4679;47.966;7.958;2024-02-28T07:18:33;39.93;;;23.87;;
9280;SDS011;4679;47.966;7.958;2024-02-28T07:20:35;40.53;;;23.83;;
9280;SDS011;4679;47.966;7.958;2024-02-28T07:22:37;40.47;;;23.33;;
9280;SDS011;4679;47.966;7.958;2024-02-28T07:24:39;36.27;;;23.13;;
9280;SDS011;4679;47.966;7.958;2024-02-28T07:26:39;36.37;;;23.60;;
9280;SDS011;4679;47.966;7.958;2024-02-28T07:28:42;41.20;;;24.10;;
9280;SDS011;4679;47.966;7.958;2024-02-28T07:30:49;39.57;;;23.87;;
9280;SDS011;4679;47.966;7.958;2024-02-28T07:32:51;40.03;;;23.27;;
9280;SDS011;4679;47.966;7.958;2024-02-28T07:34:52;40.67;;;23.97;;
9280;SDS011;4679;47.966;7.958;2024-02-28T07:36:55;43.70;;;25.20;;
9280;SDS011;4679;47.966;7.958;2024-02-28T07:38:57;41.07;;;23.77;;
9280;SDS011;4679;47.966;7.958;2024-02-28T07:40:59;40.33;;;24.33;;
9280;SDS011;4679;47.966;7.958;2024-02-28T07:42:59;41.33;;;24.00;;
9280;SDS011;4679;47.966;7.958;2024-02-28T07:45:01;41.23;;;23.90;;
9280;SDS011;4679;47.966;7.958;2024-02-28T07:47:01;40.07;;;23.47;;
9280;SDS011;4679;47.966;7.958;2024-02-28T07:49:03;40.17;;;25.30;;
9280;SDS011;4679;47.966;7.958;2024-02-28T07:51:04;41.10;;;25.43;;
9280;SDS011;4679;47.966;7.958;2024-02-28T07:53:07;43.97;;;27.20;;
9280;SDS011;4679;47.966;7.958;2024-02-28T07:55:08;39.67;;;23.50;;
9280;SDS011;4679;47.966;7.958;2024-02-28T07:57:10;43.97;;;25.60;;
9280;SDS011;4679;47.966;7.958;2024-02-28T07:59:12;44.03;;;25.33;;
9280;SDS011;4679;47.966;7.958;2024-02-28T08:01:14;38.10;;;24.30;;
9280;SDS011;4679;47.966;7.958;2024-02-28T08:03:16;40.80;;;24.00;;
9280;SDS011;4679;47.966;7.958;2024-02-28T08:05:18;42.73;;;25.77;;
9280;SDS011;4679;47.966;7.958;2024-02-28T08:07:20;43.03;;;25.70;;
9280;SDS011;4679;47.966;7.958;2024-02-28T08:09:23;40.67;;;23.77;;
9280;SDS011;4679;47.966;7.958;2024-02-28T08:11:24;42.97;;;24.93;;
9280;SDS011;4679;47.966;7.958;2024-02-28T08:13:26;36.43;;;23.50;;
9280;SDS011;4679;47.966;7.958;2024-02-28T08:15:28;41.40;;;25.03;;
9280;SDS011;4679;47.966;7.958;2024-02-28T08:17:30;37.77;;;24.53;;
9280;SDS011;4679;47.966;7.958;2024-02-28T08:19:32;47.07;;;25.30;;
9280;SDS011;4679;47.966;7.958;2024-02-28T08:21:35;42.67;;;25.70;;
9280;SDS011;4679;47.966;7.958;2024-02-28T08:23:36;41.10;;;25.17;;
9280;SDS011;4679;47.966;7.958;2024-02-28T08:25:39;38.67;;;23.13;;
9280;SDS011;4679;47.966;7.958;2024-02-28T08:27:41;41.23;;;26.00;;
9280;SDS011;4679;47.966;7.958;2024-02-28T08:29:43;44.00;;;25.30;;
9280;SDS011;4679;47.966;7.958;2024-02-28T08:31:45;39.57;;;25.20;;
9280;SDS011;4679;47.966;7.958;2024-02-28T08:33:47;37.77;;;25.10;;
9280;SDS011;4679;47.966;7.958;2024-02-28T08:35:48;38.57;;;24.20;;
9280;SDS011;4679;47.966;7.958;2024-02-28T08:37:50;40.43;;;25.50;;
9280;SDS011;4679;47.966;7.958;2024-02-28T08:39:51;43.40;;;25.73;;
9280;SDS011;4679;47.966;7.958;2024-02-28T08:41:56;40.07;;;25.10;;
9280;SDS011;4679;47.966;7.958;2024-02-28T08:43:58;45.53;;;26.83;;
9280;SDS011;4679;47.966;7.958;2024-02-28T08:45:59;39.23;;;25.27;;
9280;SDS011;4679;47.966;7.958;2024-02-28T08:48:00;41.60;;;25.57;;
9280;SDS011;4679;47.966;7.958;2024-02-28T08:50:02;44.60;;;26.00;;
9280;SDS011;4679;47.966;7.958;2024-02-28T08:52:02;41.73;;;26.17;;
9280;SDS011;4679;47.966;7.958;2024-02-28T08:54:04;42.60;;;24.80;;
9280;SDS011;4679;47.966;7.958;2024-02-28T08:56:06;45.40;;;25.90;;
9280;SDS011;4679;47.966;7.958;2024-02-28T08:58:09;39.03;;;24.23;;
9280;SDS011;4679;47.966;7.958;2024-02-28T09:00:10;44.67;;;25.40;;
9280;SDS011;4679;47.966;7.958;2024-02-28T09:02:12;38.77;;;24.27;;
9280;SDS011;4679;47.966;7.958;2024-02-28T09:04:14;45.30;;;26.53;;
9280;SDS011;4679;47.966;7.958;2024-02-28T09:06:15;40.57;;;25.90;;
9280;SDS011;4679;47.966;7.958;2024-02-28T09:08:16;44.27;;;26.23;;
9280;SDS011;4679;47.966;7.958;2024-02-28T09:10:17;44.37;;;25.53;;
9280;SDS011;4679;47.966;7.958;2024-02-28T09:12:21;43.00;;;26.30;;
9280;SDS011;4679;47.966;7.958;2024-02-28T09:14:24;41.50;;;26.30;;
9280;SDS011;4679;47.966;7.958;2024-02-28T09:16:25;41.43;;;25.60;;
9280;SDS011;4679;47.966;7.958;2024-02-28T09:18:27;46.50;;;26.53;;
9280;SDS011;4679;47.966;7.958;2024-02-28T09:20:29;40.83;;;25.93;;
9280;SDS011;4679;47.966;7.958;2024-02-28T09:22:31;42.43;;;25.17;;
9280;SDS011;4679;47.966;7.958;2024-02-28T09:24:31;43.90;;;25.97;;
9280;SDS011;4679;47.966;7.958;2024-02-28T09:26:33;43.20;;;26.50;;
9280;SDS011;4679;47.966;7.958;2024-02-28T09:28:39;50.00;;;26.70;;
9280;SDS011;4679;47.966;7.958;2024-02-28T09:30:42;45.47;;;27.27;;
9280;SDS011;4679;47.966;7.958;2024-02-28T09:32:44;47.97;;;25.93;;
9280;SDS011;4679;47.966;7.958;2024-02-28T09:34:45;43.23;;;25.97;;
9280;SDS011;4679;47.966;7.958;2024-02-28T09:36:46;42.57;;;25.83;;
9280;SDS011;4679;47.966;7.958;2024-02-28T09:38:48;45.60;;;26.93;;
9280;SDS011;4679;47.966;7.958;2024-02-28T09:40:49;42.43;;;25.60;;
9280;SDS011;4679;47.966;7.958;2024-02-28T09:42:51;42.47;;;26.77;;
9280;SDS011;4679;47.966;7.958;2024-02-28T09:44:58;38.27;;;23.33;;
9280;SDS011;4679;47.966;7.958;2024-02-28T09:47:03;39.80;;;24.70;;
9280;SDS011;4679;47.966;7.958;2024-02-28T09:49:05;39.33;;;23.80;;
9280;SDS011;4679;47.966;7.958;2024-02-28T09:51:08;38.13;;;23.93;;
9280;SDS011;4679;47.966;7.958;2024-02-28T09:53:09;35.20;;;23.63;;
9280;SDS011;4679;47.966;7.958;2024-02-28T09:55:11;39.73;;;24.97;;
9280;SDS011;4679;47.966;7.958;2024-02-28T09:57:12;36.60;;;24.53;;
9280;SDS011;4679;47.966;7.958;2024-02-28T09:59:15;39.90;;;24.70;;
9280;SDS011;4679;47.966;7.958;2024-02-28T10:01:17;40.13;;;24.13;;
9280;SDS011;4679;47.966;7.958;2024-02-28T10:03:22;37.13;;;23.83;;
9280;SDS011;4679;47.966;7.958;2024-02-28T10:05:25;40.47;;;23.90;;
9280;SDS011;4679;47.966;7.958;2024-02-28T10:07:29;35.67;;;22.77;;
9280;SDS011;4679;47.966;7.958;2024-02-28T10:09:31;38.77;;;23.67;;
9280;SDS011;4679;47.966;7.958;2024-02-28T10:11:33;35.37;;;24.07;;
9280;SDS011;4679;47.966;7.958;2024-02-28T10:13:35;35.00;;;23.97;;
9280;SDS011;4679;47.966;7.958;2024-02-28T10:15:37;37.40;;;22.80;;
9280;SDS011;4679;47.966;7.958;2024-02-28T10:17:38;32.67;;;22.17;;
9280;SDS011;4679;47.966;7.958;2024-02-28T10:19:41;34.23;;;22.20;;
9280;SDS011;4679;47.966;7.958;2024-02-28T10:21:43;34.63;;;23.13;;
9280;SDS011;4679;47.966;7.958;2024-02-28T10:23:47;37.83;;;23.47;;
9280;SDS011;4679;47.966;7.958;2024-02-28T10:25:50;31.37;;;22.33;;
9280;SDS011;4679;47.966;7.958;2024-02-28T10:27:51;33.43;;;21.67;;
9280;SDS011;4679;47.966;7.958;2024-02-28T10:29:53;33.50;;;22.57;;
9280;SDS011;4679;47.966;7.958;2024-02-28T10:31:55;32.77;;;20.87;;
9280;SDS011;4679;47.966;7.958;2024-02-28T10:33:55;28.90;;;19.93;;
9280;SDS011;4679;47.966;7.958;2024-02-28T10:35:59;29.20;;;20.67;;
9280;SDS011;4679;47.966;7.958;2024-02-28T10:38:01;31.50;;;21.37;;
9280;SDS011;4679;47.966;7.958;2024-02-28T10:40:02;32.47;;;20.47;;
9280;SDS011;4679;47.966;7.958;2024-02-28T10:42:06;33.50;;;22.13;;
9280;SDS011;4679;47.966;7.958;2024-02-28T10:44:11;27.27;;;19.20;;
9280;SDS011;4679;47.966;7.958;2024-02-28T10:46:13;30.00;;;20.53;;
9280;SDS011;4679;47.966;7.958;2024-02-28T10:48:15;31.07;;;20.80;;
9280;SDS011;4679;47.966;7.958;2024-02-28T10:50:16;32.40;;;21.83;;
9280;SDS011;4679;47.966;7.958;2024-02-28T10:52:19;29.13;;;20.23;;
9280;SDS011;4679;47.966;7.958;2024-02-28T10:54:24;27.40;;;18.07;;
9280;SDS011;4679;47.966;7.958;2024-02-28T10:56:30;24.20;;;16.67;;
9280;SDS011;4679;47.966;7.958;2024-02-28T10:58:33;25.90;;;17.37;;
9280;SDS011;4679;47.966;7.958;2024-02-28T11:00:37;22.23;;;16.50;;
9280;SDS011;4679;47.966;7.958;2024-02-28T11:02:41;20.97;;;16.10;;
9280;SDS011;4679;47.966;7.958;2024-02-28T11:04:43;20.83;;;15.70;;
9280;SDS011;4679;47.966;7.958;2024-02-28T11:06:48;19.60;;;14.03;;
9280;SDS011;4679;47.966;7.958;2024-02-28T11:08:52;21.00;;;14.80;;
9280;SDS011;4679;47.966;7.958;2024-02-28T11:10:56;19.53;;;14.70;;
9280;SDS011;4679;47.966;7.958;2024-02-28T11:12:58;16.93;;;13.33;;
9280;SDS011;4679;47.966;7.958;2024-02-28T11:15:01;20.97;;;16.50;;
9280;SDS011;4679;47.966;7.958;2024-02-28T11:17:04;22.90;;;16.30;;
9280;SDS011;4679;47.966;7.958;2024-02-28T11:19:06;18.57;;;14.33;;
9280;SDS011;4679;47.966;7.958;2024-02-28T11:21:14;21.50;;;15.47;;
9280;SDS011;4679;47.966;7.958;2024-02-28T11:23:17;18.50;;;13.23;;
9280;SDS011;4679;47.966;7.958;2024-02-28T11:25:19;19.00;;;14.10;;
9280;SDS011;4679;47.966;7.958;2024-02-28T11:27:21;17.33;;;13.43;;
9280;SDS011;4679;47.966;7.958;2024-02-28T11:29:24;13.80;;;10.67;;
9280;SDS011;4679;47.966;7.958;2024-02-28T11:31:26;18.97;;;12.23;;
9280;SDS011;4679;47.966;7.958;2024-02-28T11:33:27;15.80;;;10.63;;
9280;SDS011;4679;47.966;7.958;2024-02-28T11:35:29;15.37;;;12.07;;
9280;SDS011;4679;47.966;7.958;2024-02-28T11:37:31;13.33;;;11.63;;
9280;SDS011;4679;47.966;7.958;2024-02-28T11:39:33;13.77;;;10.60;;
9280;SDS011;4679;47.966;7.958;2024-02-28T11:41:36;16.27;;;11.43;;
9280;SDS011;4679;47.966;7.958;2024-02-28T11:43:38;13.00;;;9.83;;
9280;SDS011;4679;47.966;7.958;2024-02-28T11:45:39;14.87;;;11.13;;
9280;SDS011;4679;47.966;7.958;2024-02-28T11:47:41;11.87;;;10.33;;
9280;SDS011;4679;47.966;7.958;2024-02-28T11:49:43;16.07;;;11.20;;
9280;SDS011;4679;47.966;7.958;2024-02-28T11:51:46;15.23;;;11.80;;
9280;SDS011;4679;47.966;7.958;2024-02-28T11:53:48;14.67;;;10.93;;
9280;SDS011;4679;47.966;7.958;2024-02-28T11:55:49;13.47;;;11.30;;
9280;SDS011;4679;47.966;7.958;2024-02-28T11:57:52;15.07;;;11.10;;
9280;SDS011;4679;47.966;7.958;2024-02-28T11:59:54;13.67;;;10.17;;
9280;SDS011;4679;47.966;7.958;2024-02-28T12:01:56;11.77;;;9.80;;
9280;SDS011;4679;47.966;7.958;2024-02-28T12:03:57;12.87;;;10.20;;
9280;SDS011;4679;47.966;7.958;2024-02-28T12:05:58;13.70;;;11.40;;
9280;SDS011;4679;47.966;7.958;2024-02-28T12:08:00;16.10;;;11.80;;
9280;SDS011;4679;47.966;7.958;2024-02-28T12:10:01;18.10;;;12.87;;
9280;SDS011;4679;47.966;7.958;2024-02-28T12:12:02;18.37;;;12.47;;
9280;SDS011;4679;47.966;7.958;2024-02-28T12:14:07;17.43;;;13.23;;
9280;SDS011;4679;47.966;7.958;2024-02-28T12:16:10;15.73;;;13.30;;
9280;SDS011;4679;47.966;7.958;2024-02-28T12:18:11;16.67;;;12.10;;
9280;SDS011;4679;47.966;7.958;2024-02-28T12:20:15;15.53;;;12.37;;
9280;SDS011;4679;47.966;7.958;2024-02-28T12:22:17;16.20;;;12.40;;
9280;SDS011;4679;47.966;7.958;2024-02-28T12:24:18;14.43;;;12.67;;
9280;SDS011;4679;47.966;7.958;2024-02-28T12:26:20;17.83;;;13.87;;
9280;SDS011;4679;47.966;7.958;2024-02-28T12:28:22;16.80;;;13.73;;
9280;SDS011;4679;47.966;7.958;2024-02-28T12:30:25;18.73;;;13.97;;
9280;SDS011;4679;47.966;7.958;2024-02-28T12:32:26;19.23;;;15.17;;
9280;SDS011;4679;47.966;7.958;2024-02-28T12:34:28;16.53;;;14.23;;
9280;SDS011;4679;47.966;7.958;2024-02-28T12:36:30;15.23;;;12.83;;
9280;SDS011;4679;47.966;7.958;2024-02-28T12:38:33;17.57;;;13.93;;
9280;SDS011;4679;47.966;7.958;2024-02-28T12:40:35;19.20;;;12.80;;
9280;SDS011;4679;47.966;7.958;2024-02-28T12:42:36;14.50;;;12.53;;
9280;SDS011;4679;47.966;7.958;2024-02-28T12:44:37;16.73;;;13.27;;
9280;SDS011;4679;47.966;7.958;2024-02-28T12:46:42;16.20;;;13.43;;
9280;SDS011;4679;47.966;7.958;2024-02-28T12:48:42;17.20;;;12.53;;
9280;SDS011;4679;47.966;7.958;2024-02-28T12:50:44;16.13;;;13.00;;
9280;SDS011;4679;47.966;7.958;2024-02-28T12:52:44;18.47;;;13.30;;
9280;SDS011;4679;47.966;7.958;2024-02-28T12:54:49;20.93;;;13.87;;
9280;SDS011;4679;47.966;7.958;2024-02-28T12:56:49;16.50;;;12.83;;
9280;SDS011;4679;47.966;7.958;2024-02-28T12:58:51;16.97;;;13.17;;
9280;SDS011;4679;47.966;7.958;2024-02-28T13:00:52;16.07;;;13.10;;
9280;SDS011;4679;47.966;7.958;2024-02-28T13:02:55;17.03;;;13.23;;
9280;SDS011;4679;47.966;7.958;2024-02-28T13:04:56;16.90;;;13.00;;
9280;SDS011;4679;47.966;7.958;2024-02-28T13:06:58;15.73;;;12.83;;
9280;SDS011;4679;47.966;7.958;2024-02-28T13:08:59;15.50;;;12.90;;
9280;SDS011;4679;47.966;7.958;2024-02-28T13:11:01;16.17;;;13.13;;
9280;SDS011;4679;47.966;7.958;2024-02-28T13:13:03;14.93;;;12.27;;
9280;SDS011;4679;47.966;7.958;2024-02-28T13:15:06;17.37;;;12.60;;
9280;SDS011;4679;47.966;7.958;2024-02-28T13:17:09;16.43;;;12.13;;
9280;SDS011;4679;47.966;7.958;2024-02-28T13:19:13;15.70;;;12.07;;
9280;SDS011;4679;47.966;7.958;2024-02-28T13:21:15;14.47;;;11.20;;
9280;SDS011;4679;47.966;7.958;2024-02-28T13:23:17;15.13;;;11.63;;
9280;SDS011;4679;47.966;7.958;2024-02-28T13:25:19;16.30;;;12.20;;
9280;SDS011;4679;47.966;7.958;2024-02-28T13:27:20;17.03;;;12.50;;
9280;SDS011;4679;47.966;7.958;2024-02-28T13:29:21;15.47;;;12.10;;
9280;SDS011;4679;47.966;7.958;2024-02-28T13:31:23;15.33;;;11.83;;
9280;SDS011;4679;47.966;7.958;2024-02-28T13:33:24;15.67;;;12.30;;
9280;SDS011;4679;47.966;7.958;2024-02-28T13:35:27;16.47;;;11.40;;
9280;SDS011;4679;47.966;7.958;2024-02-28T13:37:30;15.17;;;11.70;;
9280;SDS011;4679;47.966;7.958;2024-02-28T13:39:33;15.70;;;11.93;;
9280;SDS011;4679;47.966;7.958;2024-02-28T13:41:35;18.27;;;12.27;;
9280;SDS011;4679;47.966;7.958;2024-02-28T13:43:36;15.43;;;11.13;;
9280;SDS011;4679;47.966;7.958;2024-02-28T13:45:37;17.93;;;12.40;;
9280;SDS011;4679;47.966;7.958;2024-02-28T13:47:41;15.10;;;11.57;;
9280;SDS011;4679;47.966;7.958;2024-02-28T13:49:43;14.27;;;10.77;;
9280;SDS011;4679;47.966;7.958;2024-02-28T13:51:46;14.97;;;11.97;;
9280;SDS011;4679;47.966;7.958;2024-02-28T13:53:49;17.43;;;11.93;;
9280;SDS011;4679;47.966;7.958;2024-02-28T13:55:52;14.53;;;10.97;;
9280;SDS011;4679;47.966;7.958;2024-02-28T13:57:54;15.50;;;12.17;;
9280;SDS011;4679;47.966;7.958;2024-02-28T13:59:55;14.93;;;11.60;;
9280;SDS011;4679;47.966;7.958;2024-02-28T14:01:56;13.97;;;10.10;;
9280;SDS011;4679;47.966;7.958;2024-02-28T14:03:59;15.23;;;11.13;;
9280;SDS011;4679;47.966;7.958;2024-02-28T14:06:01;16.67;;;11.60;;
9280;SDS011;4679;47.966;7.958;2024-02-28T14:08:06;11.57;;;9.67;;
9280;SDS011;4679;47.966;7.958;2024-02-28T14:10:08;12.43;;;10.40;;
9280;SDS011;4679;47.966;7.958;2024-02-28T14:12:11;14.27;;;10.73;;
9280;SDS011;4679;47.966;7.958;2024-02-28T14:14:13;16.00;;;12.27;;
9280;SDS011;4679;47.966;7.958;2024-02-28T14:16:15;14.13;;;11.30;;
9280;SDS011;4679;47.966;7.958;2024-02-28T14:18:19;13.53;;;11.33;;
9280;SDS011;4679;47.966;7.958;2024-02-28T14:20:21;15.27;;;10.20;;
9280;SDS011;4679;47.966;7.958;2024-02-28T14:22:22;14.53;;;10.90;;
9280;SDS011;4679;47.966;7.958;2024-02-28T14:24:25;13.07;;;11.30;;
9280;SDS011;4679;47.966;7.958;2024-02-28T14:26:27;15.47;;;11.50;;
9280;SDS011;4679;47.966;7.958;2024-02-28T14:28:30;13.77;;;11.07;;
9280;SDS011;4679;47.966;7.958;2024-02-28T14:30:32;14.63;;;10.77;;
9280;SDS011;4679;47.966;7.958;2024-02-28T14:32:34;15.47;;;11.53;;
9280;SDS011;4679;47.966;7.958;2024-02-28T14:34:36;12.93;;;10.80;;
9280;SDS011;4679;47.966;7.958;2024-02-28T14:36:38;13.57;;;11.17;;
9280;SDS011;4679;47.966;7.958;2024-02-28T14:38:40;12.70;;;10.17;;
9280;SDS011;4679;47.966;7.958;2024-02-28T14:40:42;12.53;;;10.27;;
9280;SDS011;4679;47.966;7.958;2024-02-28T14:42:44;12.90;;;9.87;;
9280;SDS011;4679;47.966;7.958;2024-02-28T14:44:45;11.37;;;10.30;;
9280;SDS011;4679;47.966;7.958;2024-02-28T14:46:47;13.53;;;10.30;;
9280;SDS011;4679;47.966;7.958;2024-02-28T14:48:48;14.53;;;10.97;;
9280;SDS011;4679;47.966;7.958;2024-02-28T14:50:52;15.20;;;11.47;;
9280;SDS011;4679;47.966;7.958;2024-02-28T14:52:53;12.10;;;10.30;;
9280;SDS011;4679;47.966;7.958;2024-02-28T14:54:55;13.07;;;10.63;;
9280;SDS011;4679;47.966;7.958;2024-02-28T14:56:57;12.47;;;10.77;;
9280;SDS011;4679;47.966;7.958;2024-02-28T14:58:59;11.70;;;10.33;;
9280;SDS011;4679;47.966;7.958;2024-02-28T15:01:00;12.27;;;9.70;;
9280;SDS011;4679;47.966;7.958;2024-02-28T15:03:02;12.03;;;10.80;;
9280;SDS011;4679;47.966;7.958;2024-02-28T15:05:05;12.37;;;11.07;;
9280;SDS011;4679;47.966;7.958;2024-02-28T15:07:07;16.83;;;10.83;;
9280;SDS011;4679;47.966;7.958;2024-02-28T15:09:09;12.87;;;9.87;;
9280;SDS011;4679;47.966;7.958;2024-02-28T15:11:11;13.43;;;10.97;;
9280;SDS011;4679;47.966;7.958;2024-02-28T15:13:14;14.47;;;11.10;;
9280;SDS011;4679;47.966;7.958;2024-02-28T15:15:16;12.67;;;10.07;;
9280;SDS011;4679;47.966;7.958;2024-02-28T15:17:18;12.77;;;10.63;;
9280;SDS011;4679;47.966;7.958;2024-02-28T15:19:19;19.10;;;11.27;;
9280;SDS011;4679;47.966;7.958;2024-02-28T15:21:21;12.53;;;10.77;;
9280;SDS011;4679;47.966;7.958;2024-02-28T15:23:23;14.67;;;11.50;;
9280;SDS011;4679;47.966;7.958;2024-02-28T15:25:25;11.80;;;9.73;;
9280;SDS011;4679;47.966;7.958;2024-02-28T15:27:26;15.23;;;11.07;;
9280;SDS011;4679;47.966;7.958;2024-02-28T15:29:28;11.47;;;10.17;;
9280;SDS011;4679;47.966;7.958;2024-02-28T15:31:30;15.50;;;11.93;;
9280;SDS011;4679;47.966;7.958;2024-02-28T15:33:32;14.83;;;11.53;;
9280;SDS011;4679;47.966;7.958;2024-02-28T15:35:34;20.40;;;14.93;;
9280;SDS011;4679;47.966;7.958;2024-02-28T15:37:36;16.57;;;12.10;;
9280;SDS011;4679;47.966;7.958;2024-02-28T15:39:37;16.60;;;12.20;;
9280;SDS011;4679;47.966;7.958;2024-02-28T15:41:40;13.37;;;10.77;;
9280;SDS011;4679;47.966;7.958;2024-02-28T15:43:42;13.00;;;10.90;;
9280;SDS011;4679;47.966;7.958;2024-02-28T15:45:45;12.53;;;11.23;;
9280;SDS011;4679;47.966;7.958;2024-02-28T15:47:49;16.73;;;10.77;;
9280;SDS011;4679;47.966;7.958;2024-02-28T15:49:51;12.83;;;11.10;;
9280;SDS011;4679;47.966;7.958;2024-02-28T15:51:53;12.63;;;10.63;;
9280;SDS011;4679;47.966;7.958;2024-02-28T15:53:54;12.07;;;10.70;;
9280;SDS011;4679;47.966;7.958;2024-02-28T15:55:56;14.40;;;10.13;;
9280;SDS011;4679;47.966;7.958;2024-02-28T15:57:58;13.83;;;10.40;;
9280;SDS011;4679;47.966;7.958;2024-02-28T16:00:00;15.13;;;10.27;;
9280;SDS011;4679;47.966;7.958;2024-02-28T16:02:03;11.57;;;9.73;;
9280;SDS011;4679;47.966;7.958;2024-02-28T16:04:05;15.03;;;10.63;;
9280;SDS011;4679;47.966;7.958;2024-02-28T16:06:07;12.17;;;9.43;;
9280;SDS011;4679;47.966;7.958;2024-02-28T16:08:10;12.70;;;9.60;;
9280;SDS011;4679;47.966;7.958;2024-02-28T16:10:11;13.77;;;9.70;;
9280;SDS011;4679;47.966;7.958;2024-02-28T16:12:12;13.03;;;10.60;;
9280;SDS011;4679;47.966;7.958;2024-02-28T16:14:14;11.07;;;9.90;;
9280;SDS011;4679;47.966;7.958;2024-02-28T16:16:14;12.80;;;10.17;;
9280;SDS011;4679;47.966;7.958;2024-02-28T16:18:17;14.60;;;11.53;;
9280;SDS011;4679;47.966;7.958;2024-02-28T16:20:19;13.30;;;10.47;;
9280;SDS011;4679;47.966;7.958;2024-02-28T16:22:24;15.03;;;10.40;;
9280;SDS011;4679;47.966;7.958;2024-02-28T16:24:25;15.63;;;10.97;;
9280;SDS011;4679;47.966;7.958;2024-02-28T16:26:27;15.17;;;10.83;;
9280;SDS011;4679;47.966;7.958;2024-02-28T16:28:29;15.47;;;11.00;;
9280;SDS011;4679;47.966;7.958;2024-02-28T16:30:30;14.70;;;11.03;;
9280;SDS011;4679;47.966;7.958;2024-02-28T16:32:32;14.63;;;10.87;;
9280;SDS011;4679;47.966;7.958;2024-02-28T16:34:34;14.60;;;10.13;;
9280;SDS011;4679;47.966;7.958;2024-02-28T16:36:36;13.43;;;10.37;;
9280;SDS011;4679;47.966;7.958;2024-02-28T16:38:36;12.47;;;10.63;;
9280;SDS011;4679;47.966;7.958;2024-02-28T16:40:38;11.40;;;9.53;;
9280;SDS011;4679;47.966;7.958;2024-02-28T16:42:40;13.57;;;10.23;;
9280;SDS011;4679;47.966;7.958;2024-02-28T16:44:41;12.53;;;10.73;;
9280;SDS011;4679;47.966;7.958;2024-02-28T16:46:43;16.83;;;10.47;;
9280;SDS011;4679;47.966;7.958;2024-02-28T16:48:45;13.80;;;10.90;;
9280;SDS011;4679;47.966;7.958;2024-02-28T16:50:48;13.33;;;10.87;;
9280;SDS011;4679;47.966;7.958;2024-02-28T16:52:50;13.53;;;9.97;;
9280;SDS011;4679;47.966;7.958;2024-02-28T16:54:51;15.60;;;11.03;;
9280;SDS011;4679;47.966;7.958;2024-02-28T16:56:53;13.73;;;9.90;;
9280;SDS011;4679;47.966;7.958;2024-02-28T16:58:55;12.77;;;10.90;;
9280;SDS011;4679;47.966;7.958;2024-02-28T17:00:56;12.90;;;10.30;;
9280;SDS011;4679;47.966;7.958;2024-02-28T17:02:58;12.20;;;10.47;;
9280;SDS011;4679;47.966;7.958;2024-02-28T17:05:00;14.77;;;10.90;;
9280;SDS011;4679;47.966;7.958;2024-02-28T17:07:03;14.53;;;10.93;;
9280;SDS011;4679;47.966;7.958;2024-02-28T17:09:05;15.83;;;11.00;;
9280;SDS011;4679;47.966;7.958;2024-02-28T17:11:09;16.37;;;11.47;;
9280;SDS011;4679;47.966;7.958;2024-02-28T17:13:12;15.57;;;12.00;;
9280;SDS011;4679;47.966;7.958;2024-02-28T17:15:13;15.70;;;12.20;;
9280;SDS011;4679;47.966;7.958;2024-02-28T17:17:14;15.67;;;12.30;;
9280;SDS011;4679;47.966;7.958;2024-02-28T17:19:18;13.83;;;11.77;;
9280;SDS011;4679;47.966;7.958;2024-02-28T17:21:19;15.43;;;10.77;;
9280;SDS011;4679;47.966;7.958;2024-02-28T17:23:22;12.80;;;10.57;;
9280;SDS011;4679;47.966;7.958;2024-02-28T17:25:25;14.23;;;10.67;;
9280;SDS011;4679;47.966;7.958;2024-02-28T17:27:27;15.37;;;11.67;;
9280;SDS011;4679;47.966;7.958;2024-02-28T17:29:29;14.40;;;10.00;;
9280;SDS011;4679;47.966;7.958;2024-02-28T17:31:31;12.40;;;10.13;;
9280;SDS011;4679;47.966;7.958;2024-02-28T17:33:33;11.67;;;9.67;;
9280;SDS011;4679;47.966;7.958;2024-02-28T17:35:34;13.10;;;10.27;;
9280;SDS011;4679;47.966;7.958;2024-02-28T17:37:36;15.13;;;11.07;;
9280;SDS011;4679;47.966;7.958;2024-02-28T17:39:39;15.63;;;10.80;;
9280;SDS011;4679;47.966;7.958;2024-02-28T17:41:41;12.37;;;10.00;;
9280;SDS011;4679;47.966;7.958;2024-02-28T17:43:44;13.93;;;10.70;;
9280;SDS011;4679;47.966;7.958;2024-02-28T17:45:46;12.27;;;10.77;;
9280;SDS011;4679;47.966;7.958;2024-02-28T17:47:47;16.67;;;10.80;;
9280;SDS011;4679;47.966;7.958;2024-02-28T17:49:49;16.20;;;11.50;;
9280;SDS011;4679;47.966;7.958;2024-02-28T17:51:51;12.97;;;11.10;;
9280;SDS011;4679;47.966;7.958;2024-02-28T17:53:52;14.73;;;10.83;;
9280;SDS011;4679;47.966;7.958;2024-02-28T17:55:56;18.60;;;13.03;;
9280;SDS011;4679;47.966;7.958;2024-02-28T17:57:58;16.87;;;12.10;;
9280;SDS011;4679;47.966;7.958;2024-02-28T17:59:59;15.10;;;10.73;;
9280;SDS011;4679;47.966;7.958;2024-02-28T18:02:01;12.60;;;10.53;;
9280;SDS011;4679;47.966;7.958;2024-02-28T18:04:03;16.17;;;11.53;;
9280;SDS011;4679;47.966;7.958;2024-02-28T18:06:05;15.27;;;11.40;;
9280;SDS011;4679;47.966;7.958;2024-02-28T18:08:06;14.13;;;11.27;;
9280;SDS011;4679;47.966;7.958;2024-02-28T18:10:08;15.40;;;11.83;;
9280;SDS011;4679;47.966;7.958;2024-02-28T18:12:12;19.20;;;12.87;;
9280;SDS011;4679;47.966;7.958;2024-02-28T18:14:12;15.83;;;11.60;;
9280;SDS011;4679;47.966;7.958;2024-02-28T18:16:14;19.47;;;12.47;;
9280;SDS011;4679;47.966;7.958;2024-02-28T18:18:18;17.23;;;11.40;;
9280;SDS011;4679;47.966;7.958;2024-02-28T18:20:20;15.53;;;11.30;;
9280;SDS011;4679;47.966;7.958;2024-02-28T18:22:21;15.47;;;11.70;;
9280;SDS011;4679;47.966;7.958;2024-02-28T18:24:22;13.17;;;10.20;;
9280;SDS011;4679;47.966;7.958;2024-02-28T18:26:23;14.67;;;11.17;;
9280;SDS011;4679;47.966;7.958;2024-02-28T18:28:25;16.50;;;12.00;;
9280;SDS011;4679;47.966;7.958;2024-02-28T18:30:27;16.43;;;12.27;;
9280;SDS011;4679;47.966;7.958;2024-02-28T18:32:27;14.17;;;11.50;;
9280;SDS011;4679;47.966;7.958;2024-02-28T18:34:30;15.40;;;11.13;;
9280;SDS011;4679;47.966;7.958;2024-02-28T18:36:32;15.63;;;11.67;;
9280;SDS011;4679;47.966;7.958;2024-02-28T18:38:32;14.43;;;10.67;;
9280;SDS011;4679;47.966;7.958;2024-02-28T18:40:34;16.13;;;11.37;;
9280;SDS011;4679;47.966;7.958;2024-02-28T18:42:36;18.17;;;11.90;;
9280;SDS011;4679;47.966;7.958;2024-02-28T18:44:39;19.23;;;11.90;;
9280;SDS011;4679;47.966;7.958;2024-02-28T18:46:40;18.30;;;11.90;;
9280;SDS011;4679;47.966;7.958;2024-02-28T18:48:42;16.43;;;12.30;;
9280;SDS011;4679;47.966;7.958;2024-02-28T18:50:44;20.43;;;12.87;;
9280;SDS011;4679;47.966;7.958;2024-02-28T18:52:45;19.83;;;12.80;;
9280;SDS011;4679;47.966;7.958;2024-02-28T18:54:47;15.80;;;11.43;;
9280;SDS011;4679;47.966;7.958;2024-02-28T18:56:49;17.80;;;13.80;;
9280;SDS011;4679;47.966;7.958;2024-02-28T18:58:50;20.67;;;15.83;;
9280;SDS011;4679;47.966;7.958;2024-02-28T19:00:52;23.33;;;15.90;;
9280;SDS011;4679;47.966;7.958;2024-02-28T19:02:54;20.50;;;14.20;;